Time;durP1;ratioP1;P1;durP2;ratioP2;P2;SDS_P1;SDS_P2;PMS_P1;PMS_P2;Temp;Humidity;BMP_temperature;BMP_pressure;BME280_temperature;BME280_humidity;BME280_pressure;Samples;Min_cycle;Max_cycle;Signal;HPM_P1;HPM_P2
2023/10/21 00:00:21;;;;;;;0.10;0.10;;;;;;;12.32;82.80;97893.31;7359303;19;20010;-60
2023/10/21 00:02:47;;;;;;;0.10;0.10;;;;;;;12.37;83.24;97896.44;7353175;19;20014;-60
2023/10/21 00:05:12;;;;;;;0.10;0.10;;;;;;;12.39;82.97;97899.75;7362492;19;20368;-60
2023/10/21 00:07:37;;;;;;;0.10;0.10;;;;;;;12.38;83.26;97892.84;7360562;19;20359;-61
2023/10/21 00:10:06;;;;;;;0.10;0.10;;;;;;;12.38;82.98;97893.69;7328493;19;20007;-60
2023/10/21 00:12:32;;;;;;;0.10;0.10;;;;;;;12.35;83.10;97890.47;7360224;19;20013;-60
2023/10/21 00:14:58;;;;;;;0.10;0.10;;;;;;;12.37;82.80;97901.66;7359908;19;20015;-60
2023/10/21 00:17:25;;;;;;;0.10;0.10;;;;;;;12.37;82.97;97906.91;7341987;19;20020;-60
2023/10/21 00:19:50;;;;;;;0.10;0.10;;;;;;;12.37;83.00;97896.44;7360462;19;20425;-60
2023/10/21 00:22:16;;;;;;;0.10;0.10;;;;;;;12.37;83.26;97902.50;7360106;19;20382;-60
2023/10/21 00:24:41;;;;;;;0.10;0.10;;;;;;;12.38;82.87;97898.91;7359371;19;20292;-60
2023/10/21 00:27:07;;;;;;;0.10;0.10;;;;;;;12.25;83.16;97873.78;7360296;19;20006;-60
2023/10/21 00:29:34;;;;;;;0.10;0.10;;;;;;;12.39;83.32;97897.13;7344472;19;20010;-60
2023/10/21 00:31:59;;;;;;;0.10;0.10;;;;;;;12.39;83.28;97899.75;7361158;19;20088;-60
2023/10/21 00:34:24;;;;;;;0.10;0.10;;;;;;;12.39;83.19;97902.38;7362630;19;20189;-60
2023/10/21 00:36:50;;;;;;;0.10;0.10;;;;;;;12.38;82.93;97908.56;7356303;19;22067;-60
2023/10/21 00:39:16;;;;;;;0.10;0.10;;;;;;;12.39;83.27;97902.38;7358275;19;20038;-60
2023/10/21 00:41:42;;;;;;;0.10;0.10;;;;;;;12.27;83.29;97884.97;7358851;19;20017;-60
2023/10/21 00:44:08;;;;;;;0.10;0.10;;;;;;;12.38;83.17;97909.38;7357368;19;20086;-60
2023/10/21 00:46:34;;;;;;;0.10;0.10;;;;;;;12.40;83.12;97906.66;7354412;19;20005;-60
2023/10/21 00:49:03;;;;;;;0.10;0.10;;;;;;;12.40;82.74;97911.88;7358812;19;20105;-60
2023/10/21 00:51:28;;;;;;;0.10;0.10;;;;;;;12.29;82.84;97893.53;7354545;19;20002;-60
2023/10/21 00:53:56;;;;;;;0.00;0.00;;;;;;;12.33;82.97;97894.97;7360188;19;20022;-60
2023/10/21 00:56:21;;;;;;;0.10;0.10;;;;;;;12.35;83.19;97914.00;7353145;19;20022;-60
2023/10/21 00:58:47;;;;;;;0.10;0.10;;;;;;;12.39;82.87;97921.50;7361412;19;20379;-60
2023/10/21 01:01:13;;;;;;;0.10;0.10;;;;;;;12.39;83.12;97921.50;7359175;19;20470;-60
2023/10/21 01:03:40;;;;;;;0.10;0.10;;;;;;;12.40;83.04;97917.13;7356345;19;20450;-60
2023/10/21 01:06:06;;;;;;;0.08;0.08;;;;;;;12.39;82.91;97920.69;7362322;19;20110;-60
2023/10/21 01:08:39;;;;;;;0.10;0.10;;;;;;;12.42;83.14;97910.00;7352726;19;20034;-60
2023/10/21 01:11:04;;;;;;;0.10;0.10;;;;;;;12.40;82.87;97917.13;7358836;19;20022;-60
2023/10/21 01:13:30;;;;;;;0.20;0.20;;;;;;;12.40;82.75;97917.94;7353986;19;20011;-60
2023/10/21 01:15:56;;;;;;;0.10;0.10;;;;;;;12.40;83.04;97917.13;7359968;19;20014;-60
2023/10/21 01:18:21;;;;;;;0.10;0.10;;;;;;;12.41;83.24;97924.00;7354096;19;20027;-60
2023/10/21 01:20:51;;;;;;;0.10;0.10;;;;;;;12.45;82.82;97925.47;7354743;19;20018;-60
2023/10/21 01:23:17;;;;;;;0.10;0.10;;;;;;;12.43;82.88;97933.44;7357661;19;20014;-60
2023/10/21 01:25:43;;;;;;;0.00;0.00;;;;;;;12.44;82.74;97934.25;7364770;19;20009;-60
2023/10/21 01:28:09;;;;;;;0.10;0.10;;;;;;;12.44;83.12;97934.25;7352755;19;20014;-60
2023/10/21 01:30:34;;;;;;;0.00;0.00;;;;;;;12.44;82.79;97934.25;7358865;19;20669;-59
2023/10/21 01:32:59;;;;;;;0.10;0.10;;;;;;;12.45;82.82;97941.16;7358699;19;20573;-60
2023/10/21 01:35:25;;;;;;;0.00;0.00;;;;;;;12.41;83.03;97929.25;7352486;19;20002;-60
2023/10/21 01:37:50;;;;;;;0.00;0.00;;;;;;;12.42;82.94;97930.94;7360157;19;20011;-60
2023/10/21 01:40:16;;;;;;;0.10;0.10;;;;;;;12.41;82.79;97926.63;7366231;19;20014;-60
2023/10/21 01:42:41;;;;;;;0.10;0.10;;;;;;;12.40;82.69;97927.59;7367312;19;20010;-60
2023/10/21 01:45:07;;;;;;;0.10;0.10;;;;;;;12.41;82.80;97934.47;7360907;19;20014;-60
2023/10/21 01:47:33;;;;;;;0.10;0.10;;;;;;;12.37;83.03;97927.81;7369174;19;20018;-60
2023/10/21 01:49:59;;;;;;;0.10;0.10;;;;;;;12.48;82.98;97938.31;7360280;19;20032;-60
2023/10/21 01:52:25;;;;;;;0.10;0.10;;;;;;;12.32;82.83;97914.25;7369721;19;20006;-60
2023/10/21 01:54:51;;;;;;;0.10;0.10;;;;;;;12.46;83.02;97948.88;7370160;19;20033;-60
2023/10/21 01:57:16;;;;;;;0.10;0.10;;;;;;;12.50;83.09;97944.28;7358927;19;20011;-60
2023/10/21 01:59:42;;;;;;;0.10;0.10;;;;;;;12.50;82.96;97943.44;7366558;19;20042;-60
2023/10/21 02:02:07;;;;;;;0.10;0.10;;;;;;;12.52;83.08;97941.53;7375861;19;20011;-60
2023/10/21 02:04:33;;;;;;;0.10;0.10;;;;;;;12.52;82.65;97941.53;7373750;19;20007;-60
2023/10/21 02:06:58;;;;;;;0.10;0.10;;;;;;;12.48;82.91;97930.47;7365275;19;20019;-60
2023/10/21 02:09:24;;;;;;;0.10;0.10;;;;;;;12.55;83.06;97949.16;7367954;19;20038;-60
2023/10/21 02:11:49;;;;;;;0.10;0.10;;;;;;;12.54;82.78;97952.72;7363549;19;20483;-59
2023/10/21 02:14:15;;;;;;;0.10;0.10;;;;;;;12.55;82.56;97946.53;7365947;19;20368;-60
2023/10/21 02:16:40;;;;;;;0.10;0.10;;;;;;;12.55;82.77;97951.78;7361765;19;20038;-60
2023/10/21 02:19:06;;;;;;;0.00;0.00;;;;;;;12.56;82.84;97950.81;7371842;19;20010;-59
2023/10/21 02:21:31;;;;;;;0.10;0.10;;;;;;;12.41;82.87;97924.84;7369613;19;20466;-60
2023/10/21 02:23:57;;;;;;;0.10;0.10;;;;;;;12.56;82.71;97943.81;7365909;19;20019;-60
2023/10/21 02:26:22;;;;;;;0.10;0.10;;;;;;;12.57;82.58;97944.63;7368735;19;20961;-60
2023/10/21 02:28:47;;;;;;;0.08;0.08;;;;;;;12.56;82.53;97948.22;7361961;19;20437;-60
2023/10/21 02:31:13;;;;;;;0.10;0.10;;;;;;;12.54;82.55;97945.72;7363910;19;20588;-60
2023/10/21 02:33:39;;;;;;;0.10;0.10;;;;;;;12.54;82.69;97945.72;7365596;19;20017;-60
2023/10/21 02:36:05;;;;;;;0.10;0.10;;;;;;;12.52;82.29;97952.84;7371416;19;20015;-60
2023/10/21 02:38:30;;;;;;;0.10;0.10;;;;;;;12.50;82.34;97946.88;7362337;19;20023;-60
2023/10/21 02:40:56;;;;;;;0.10;0.10;;;;;;;12.49;82.56;97945.22;7327565;19;20458;-60
2023/10/21 02:43:21;;;;;;;0.10;0.10;;;;;;;12.48;82.33;97947.97;7365015;19;20011;-60
2023/10/21 02:45:48;;;;;;;0.10;0.10;;;;;;;12.46;82.64;97948.06;7366275;19;20744;-60
2023/10/21 02:48:14;;;;;;;0.10;0.10;;;;;;;12.47;82.72;97949.75;7361810;19;20002;-60
2023/10/21 02:50:39;;;;;;;0.10;0.10;;;;;;;12.34;82.46;97935.91;7367253;19;20089;-59
2023/10/21 02:53:05;;;;;;;0.10;0.10;;;;;;;12.45;82.81;97946.41;7363060;19;20482;-60
2023/10/21 02:55:30;;;;;;;0.10;0.10;;;;;;;12.46;82.33;97950.69;7362612;19;20738;-60
2023/10/21 02:57:56;;;;;;;0.08;0.08;;;;;;;12.44;82.45;97936.88;7365998;19;20010;-60
2023/10/21 03:00:22;;;;;;;0.10;0.10;;;;;;;12.33;82.47;97926.38;7363215;19;20014;-60
2023/10/21 03:02:51;;;;;;;0.10;0.10;;;;;;;12.44;82.47;97952.59;7365447;19;20042;-60
2023/10/21 03:05:17;;;;;;;0.10;0.10;;;;;;;12.41;82.37;97948.41;7370257;19;20359;-60
2023/10/21 03:07:43;;;;;;;0.10;0.10;;;;;;;12.39;82.21;97947.69;7366647;19;20655;-60
2023/10/21 03:10:10;;;;;;;0.10;0.10;;;;;;;12.39;82.29;97944.25;7361742;19;20697;-60
2023/10/21 03:12:35;;;;;;;0.03;0.03;;;;;;;12.39;82.51;97958.16;7365312;19;20375;-60
2023/10/21 03:15:01;;;;;;;0.10;0.10;;;;;;;12.39;82.29;97957.31;7361033;19;20007;-60
2023/10/21 03:17:26;;;;;;;0.10;0.10;;;;;;;12.37;82.33;97954.00;7333233;19;20006;-60
2023/10/21 03:19:55;;;;;;;0.10;0.10;;;;;;;12.31;82.32;97938.72;7367492;19;20912;-60
2023/10/21 03:22:21;;;;;;;0.10;0.10;;;;;;;12.35;82.61;97948.84;7357414;19;20067;-60
2023/10/21 03:24:46;;;;;;;0.10;0.10;;;;;;;12.34;82.38;97944.56;7365877;19;20034;-60
2023/10/21 03:27:13;;;;;;;0.05;0.05;;;;;;;12.33;82.39;97953.38;7360730;19;20002;-60
2023/10/21 03:29:39;;;;;;;0.10;0.10;;;;;;;12.33;82.34;97952.56;7362304;19;20014;-60
2023/10/21 03:32:05;;;;;;;0.10;0.10;;;;;;;12.32;82.44;97950.88;7362731;19;20002;-60
2023/10/21 03:34:32;;;;;;;0.10;0.10;;;;;;;12.31;82.71;97950.03;7363199;19;20468;-60
2023/10/21 03:36:59;;;;;;;0.10;0.10;;;;;;;12.31;82.72;97957.03;7359893;19;20030;-60
2023/10/21 03:39:26;;;;;;;0.10;0.10;;;;;;;12.26;82.74;97953.94;7364502;19;20019;-60
2023/10/21 03:41:51;;;;;;;0.10;0.10;;;;;;;12.31;82.27;97965.72;7361116;19;20557;-60
2023/10/21 03:44:16;;;;;;;0.10;0.10;;;;;;;12.31;82.68;97967.50;7365823;19;20011;-60
2023/10/21 03:46:42;;;;;;;0.00;0.00;;;;;;;12.30;82.36;97976.31;7360154;19;20070;-60
2023/10/21 03:49:07;;;;;;;0.10;0.10;;;;;;;12.27;82.22;97969.53;7359507;19;20990;-60
2023/10/21 03:51:33;;;;;;;0.10;0.10;;;;;;;12.28;82.63;97975.59;7365137;19;20014;-60
2023/10/21 03:53:58;;;;;;;0.10;0.10;;;;;;;12.27;82.14;97980.00;7362666;19;20006;-60
2023/10/21 03:56:24;;;;;;;0.10;0.10;;;;;;;12.26;82.30;97982.72;7367252;19;20349;-60
2023/10/21 03:58:49;;;;;;;0.10;0.10;;;;;;;12.25;82.23;97986.28;7359926;19;20019;-60
2023/10/21 04:01:15;;;;;;;0.10;0.10;;;;;;;12.22;82.15;97981.28;7359267;19;20366;-60
2023/10/21 04:03:40;;;;;;;0.10;0.10;;;;;;;12.02;82.43;97960.03;7362883;19;20007;-60
2023/10/21 04:06:08;;;;;;;0.00;0.00;;;;;;;12.18;82.47;97986.72;7360875;19;20075;-60
2023/10/21 04:08:33;;;;;;;0.00;0.00;;;;;;;12.18;82.29;97999.81;7365077;19;20118;-60
2023/10/21 04:10:59;;;;;;;0.10;0.10;;;;;;;12.16;82.33;97996.44;7363295;19;20098;-59
2023/10/21 04:13:24;;;;;;;0.00;0.00;;;;;;;12.13;82.49;98001.94;7364182;19;20006;-60
2023/10/21 04:15:50;;;;;;;0.08;0.08;;;;;;;12.11;82.18;98001.19;7364250;19;20101;-60
2023/10/21 04:18:16;;;;;;;0.10;0.10;;;;;;;12.09;82.44;97997.84;7369023;19;20013;-60
2023/10/21 04:20:42;;;;;;;0.03;0.03;;;;;;;12.06;82.45;97998.06;7373782;19;20009;-60
2023/10/21 04:23:08;;;;;;;0.00;0.00;;;;;;;12.00;82.29;97998.50;7349871;19;20401;-59
2023/10/21 04:25:33;;;;;;;0.10;0.10;;;;;;;12.00;82.14;98003.75;7365861;19;20022;-60
2023/10/21 04:27:59;;;;;;;0.10;0.10;;;;;;;11.98;82.08;98010.88;7358376;19;20111;-61
2023/10/21 04:30:25;;;;;;;0.10;0.10;;;;;;;11.91;81.86;98009.63;7359537;19;20078;-60
2023/10/21 04:32:51;;;;;;;0.10;0.10;;;;;;;11.89;81.84;98007.13;7362430;19;20021;-60
2023/10/21 04:35:17;;;;;;;0.08;0.08;;;;;;;11.86;82.38;98022.19;7359130;19;20342;-60
2023/10/21 04:37:42;;;;;;;0.00;0.00;;;;;;;11.82;82.42;98020.75;7364593;19;20010;-60
2023/10/21 04:40:08;;;;;;;0.00;0.00;;;;;;;11.79;82.22;98023.53;7358786;19;20391;-60
2023/10/21 04:42:34;;;;;;;0.00;0.00;;;;;;;11.75;82.40;98022.06;7365358;19;20015;-60
2023/10/21 04:44:59;;;;;;;0.10;0.10;;;;;;;11.73;82.51;98030.03;7363083;19;20006;-60
2023/10/21 04:47:25;;;;;;;0.10;0.10;;;;;;;11.72;82.18;98031.00;7352042;19;20006;-60
2023/10/21 04:49:50;;;;;;;0.05;0.05;;;;;;;11.70;82.56;98032.84;7362723;19;20817;-60
2023/10/21 04:52:16;;;;;;;0.10;0.10;;;;;;;11.60;82.34;98019.59;7360398;19;20017;-60
2023/10/21 04:54:42;;;;;;;0.00;0.00;;;;;;;11.67;82.38;98036.53;7361906;19;20151;-60
2023/10/21 04:57:08;;;;;;;0.03;0.03;;;;;;;11.64;82.46;98036.75;7359212;19;20048;-60
2023/10/21 04:59:34;;;;;;;0.10;0.10;;;;;;;11.63;82.65;98044.69;7365260;19;20023;-59
2023/10/21 05:01:59;;;;;;;0.00;0.00;;;;;;;11.64;82.65;98044.59;7359642;19;21410;-60
2023/10/21 05:04:25;;;;;;;0.10;0.10;;;;;;;11.61;82.19;98034.34;7362521;19;20006;-60
2023/10/21 05:06:50;;;;;;;0.10;0.10;;;;;;;11.62;82.56;98043.03;7368689;19;20110;-60
2023/10/21 05:09:16;;;;;;;0.10;0.10;;;;;;;11.60;82.24;98043.13;7362902;19;20017;-60
2023/10/21 05:11:42;;;;;;;0.10;0.10;;;;;;;11.59;82.19;98043.22;7355020;19;20026;-59
2023/10/21 05:14:07;;;;;;;0.03;0.03;;;;;;;11.54;82.44;98038.31;7366951;19;20114;-60
2023/10/21 05:16:33;;;;;;;0.10;0.10;;;;;;;11.51;82.05;98042.94;7368630;19;20546;-59
2023/10/21 05:18:58;;;;;;;0.00;0.00;;;;;;;11.53;82.19;98057.56;7365014;19;20006;-60
2023/10/21 05:21:24;;;;;;;0.10;0.10;;;;;;;11.52;81.89;98060.28;7373792;19;20014;-60
2023/10/21 05:23:50;;;;;;;0.10;0.10;;;;;;;11.49;82.26;98063.09;7364737;19;20015;-60
2023/10/21 05:26:17;;;;;;;0.00;0.00;;;;;;;11.47;82.42;98062.38;7371662;19;20010;-60
2023/10/21 05:28:42;;;;;;;0.08;0.08;;;;;;;11.43;82.40;98056.53;7368897;19;20011;-60
2023/10/21 05:31:08;;;;;;;0.10;0.10;;;;;;;11.30;82.41;98046.06;7363458;19;20030;-60
2023/10/21 05:33:33;;;;;;;0.10;0.10;;;;;;;11.41;82.27;98058.41;7357727;19;20461;-60
2023/10/21 05:35:59;;;;;;;0.10;0.10;;;;;;;11.41;82.23;98076.69;7377643;19;20931;-59
2023/10/21 05:38:26;;;;;;;0.10;0.10;;;;;;;11.38;82.05;98072.50;7371886;19;20098;-59
2023/10/21 05:40:52;;;;;;;0.10;0.10;;;;;;;11.36;82.11;98081.41;7376123;19;20063;-60
2023/10/21 05:43:17;;;;;;;0.10;0.10;;;;;;;11.36;82.40;98070.97;7368879;19;20006;-60
2023/10/21 05:45:43;;;;;;;0.10;0.10;;;;;;;11.35;82.25;98079.72;7367519;19;20010;-59
2023/10/21 05:48:09;;;;;;;0.10;0.10;;;;;;;11.31;82.08;98073.03;7364554;19;20018;-60
2023/10/21 05:50:35;;;;;;;0.10;0.10;;;;;;;11.24;82.02;98063.94;7370345;19;20030;-60
2023/10/21 05:53:01;;;;;;;0.00;0.00;;;;;;;11.32;82.39;98082.53;7363725;19;20003;-60
2023/10/21 05:55:26;;;;;;;0.10;0.10;;;;;;;11.30;82.19;98081.78;7369293;19;20738;-59
2023/10/21 05:57:51;;;;;;;0.00;0.00;;;;;;;11.27;82.07;98087.25;7363477;19;20006;-59
2023/10/21 06:00:17;;;;;;;0.00;0.00;;;;;;;11.08;82.14;98046.69;7364737;19;20015;-59
2023/10/21 06:02:42;;;;;;;0.10;0.10;;;;;;;11.23;81.83;98077.94;7367368;19;20019;-59
2023/10/21 06:05:08;;;;;;;0.10;0.10;;;;;;;11.12;81.98;98069.03;7363031;19;20605;-60
2023/10/21 06:07:34;;;;;;;0.00;0.00;;;;;;;11.19;82.35;98090.34;7369576;19;20018;-60
2023/10/21 06:09:59;;;;;;;0.05;0.05;;;;;;;11.15;81.95;98084.53;7366657;19;20018;-60
2023/10/21 06:12:25;;;;;;;0.10;0.10;;;;;;;11.10;81.86;98081.38;7364517;19;20306;-60
2023/10/21 06:14:51;;;;;;;0.00;0.00;;;;;;;11.10;82.17;98094.44;7359467;19;20014;-60
2023/10/21 06:17:16;;;;;;;0.10;0.10;;;;;;;10.98;82.00;98076.97;7364195;19;20007;-59
2023/10/21 06:19:45;;;;;;;0.10;0.10;;;;;;;11.03;82.22;98092.31;7364252;19;20031;-59
2023/10/21 06:22:12;;;;;;;0.00;0.00;;;;;;;11.05;82.03;98104.34;7365161;19;20641;-60
2023/10/21 06:24:39;;;;;;;0.08;0.08;;;;;;;11.02;81.87;98094.09;7369056;19;20010;-60
2023/10/21 06:27:04;;;;;;;0.10;0.10;;;;;;;10.95;82.00;98094.59;7369660;19;20616;-59
2023/10/21 06:29:30;;;;;;;0.10;0.10;;;;;;;10.99;82.29;98102.13;7358936;19;20007;-59
2023/10/21 06:31:55;;;;;;;0.08;0.08;;;;;;;10.97;82.12;98101.41;7365727;19;20018;-60
2023/10/21 06:34:21;;;;;;;0.00;0.00;;;;;;;10.97;82.07;98106.63;7369402;19;20018;-59
2023/10/21 06:36:46;;;;;;;0.08;0.08;;;;;;;10.95;82.47;98118.97;7357823;19;20085;-59
2023/10/21 06:39:12;;;;;;;0.10;0.10;;;;;;;10.92;82.16;98113.91;7368206;19;20011;-60
2023/10/21 06:41:38;;;;;;;0.13;0.13;;;;;;;10.95;82.26;98121.56;7365089;19;20045;-59
2023/10/21 06:44:03;;;;;;;0.10;0.10;;;;;;;10.96;82.48;98119.78;7369229;19;20355;-59
2023/10/21 06:46:30;;;;;;;0.10;0.10;;;;;;;10.90;82.51;98115.81;7363856;19;20010;-59
2023/10/21 06:48:55;;;;;;;0.10;0.10;;;;;;;10.90;82.55;98115.81;7362311;19;20010;-60
2023/10/21 06:51:21;;;;;;;0.10;0.10;;;;;;;10.91;82.46;98122.69;7369233;19;20013;-59
2023/10/21 06:53:46;;;;;;;0.10;0.10;;;;;;;10.95;82.18;98129.41;7364189;19;20044;-59
2023/10/21 06:56:12;;;;;;;0.10;0.10;;;;;;;10.98;82.67;98130.97;7364459;19;20687;-60
2023/10/21 06:58:39;;;;;;;0.10;0.10;;;;;;;10.95;82.66;98134.63;7367615;19;20021;-60
2023/10/21 07:01:08;;;;;;;0.00;0.00;;;;;;;10.99;82.15;98138.69;7364031;19;20019;-60
2023/10/21 07:03:33;;;;;;;0.10;0.10;;;;;;;10.84;82.13;98121.41;7366947;19;20011;-60
2023/10/21 07:05:59;;;;;;;0.10;0.10;;;;;;;11.00;82.10;98148.22;7370711;19;20762;-59
2023/10/21 07:08:24;;;;;;;0.10;0.10;;;;;;;11.01;82.34;98151.66;7365964;19;20018;-60
2023/10/21 07:10:52;;;;;;;0.10;0.10;;;;;;;11.02;82.06;98151.56;7364330;19;20016;-59
2023/10/21 07:13:18;;;;;;;0.10;0.10;;;;;;;11.02;82.25;98151.56;7358460;19;20363;-59
2023/10/21 07:15:44;;;;;;;0.10;0.10;;;;;;;10.91;82.17;98130.53;7366964;19;20011;-60
2023/10/21 07:18:09;;;;;;;0.10;0.10;;;;;;;11.04;82.59;98148.81;7364917;19;20351;-59
2023/10/21 07:20:36;;;;;;;0.10;0.10;;;;;;;11.05;82.49;98156.59;7367134;19;20636;-60
2023/10/21 07:23:02;;;;;;;0.00;0.00;;;;;;;11.05;82.25;98164.41;7359344;19;20008;-59
2023/10/21 07:25:28;;;;;;;0.00;0.00;;;;;;;11.06;82.18;98157.41;7365970;19;20086;-60
2023/10/21 07:27:54;;;;;;;0.00;0.00;;;;;;;10.93;82.20;98138.25;7360776;19;20485;-60
2023/10/21 07:30:23;;;;;;;0.10;0.10;;;;;;;11.02;82.44;98155.94;7360260;19;20011;-59
2023/10/21 07:32:48;;;;;;;0.10;0.10;;;;;;;11.08;82.53;98163.38;7366417;19;20021;-58
2023/10/21 07:35:14;;;;;;;0.10;0.10;;;;;;;11.09;82.22;98168.47;7357932;19;19999;-60
2023/10/21 07:37:39;;;;;;;0.10;0.10;;;;;;;11.02;82.04;98155.94;7366089;19;20018;-60
2023/10/21 07:40:06;;;;;;;0.10;0.10;;;;;;;11.13;82.22;98172.56;7358985;19;20010;-60
2023/10/21 07:42:32;;;;;;;0.03;0.03;;;;;;;11.03;81.96;98157.59;7362930;19;20014;-58
2023/10/21 07:44:57;;;;;;;0.00;0.00;;;;;;;11.15;82.28;98173.31;7362770;19;20021;-59
2023/10/21 07:47:23;;;;;;;0.10;0.10;;;;;;;11.17;82.35;98181.88;7365406;19;20011;-60
2023/10/21 07:49:50;;;;;;;0.10;0.10;;;;;;;11.17;82.07;98187.13;7364573;19;20014;-59
2023/10/21 07:52:16;;;;;;;0.00;0.00;;;;;;;11.21;82.18;98187.75;7354102;19;20743;-60
2023/10/21 07:54:42;;;;;;;0.03;0.03;;;;;;;11.21;82.10;98182.53;7366212;19;20482;-60
2023/10/21 07:57:08;;;;;;;0.00;0.00;;;;;;;11.22;82.18;98189.44;7359371;19;20034;-60
2023/10/21 07:59:34;;;;;;;0.00;0.00;;;;;;;11.23;82.26;98193.72;7363772;19;20008;-59
2023/10/21 08:02:00;;;;;;;0.00;0.00;;;;;;;11.25;82.05;98194.44;7359277;19;20008;-60
2023/10/21 08:04:25;;;;;;;0.00;0.00;;;;;;;11.26;82.23;98192.69;7363515;19;20017;-59
2023/10/21 08:06:50;;;;;;;0.10;0.10;;;;;;;11.28;81.80;98198.63;7364224;19;20026;-60
2023/10/21 08:09:17;;;;;;;0.10;0.10;;;;;;;11.30;81.96;98197.59;7361560;19;20002;-60
2023/10/21 08:11:43;;;;;;;0.10;0.10;;;;;;;11.32;82.00;98200.94;7363285;19;20588;-60
2023/10/21 08:14:12;;;;;;;0.00;0.00;;;;;;;11.36;81.74;98206.81;7354061;19;20006;-59
2023/10/21 08:16:38;;;;;;;0.03;0.03;;;;;;;11.36;82.10;98206.81;7346611;19;20019;-60
2023/10/21 08:19:04;;;;;;;0.10;0.10;;;;;;;11.33;82.00;98197.41;7359703;19;20015;-59
2023/10/21 08:21:30;;;;;;;0.10;0.10;;;;;;;11.41;82.11;98213.41;7361580;19;20018;-60
2023/10/21 08:23:57;;;;;;;0.10;0.10;;;;;;;11.44;82.00;98214.97;7357077;19;20038;-60
2023/10/21 08:26:23;;;;;;;;;;;;;;;11.52;81.75;98209.25;7357760;19;20023;-60
2023/10/21 08:28:48;;;;;;;0.10;0.10;;;;;;;11.51;81.62;98205.81;7356839;19;19922;-59
2023/10/21 08:31:15;;;;;;;0.08;0.08;;;;;;;11.54;81.57;98205.59;7363765;19;20540;-59
2023/10/21 08:33:40;;;;;;;0.10;0.10;;;;;;;11.54;81.86;98205.59;7352115;19;20074;-60
2023/10/21 08:36:14;;;;;;;0.10;0.10;;;;;;;11.60;81.51;98213.00;7357286;19;20021;-60
2023/10/21 08:38:41;;;;;;;0.05;0.05;;;;;;;11.57;81.78;98221.06;7357302;19;20074;-59
2023/10/21 08:41:10;;;;;;;0.10;0.10;;;;;;;11.63;81.46;98215.44;7360228;19;20014;-59
2023/10/21 08:43:37;;;;;;;0.10;0.10;;;;;;;11.66;81.99;98215.25;7363198;19;20018;-60
2023/10/21 08:46:05;;;;;;;0.03;0.03;;;;;;;11.77;82.02;98218.91;7363834;19;20374;-60
2023/10/21 08:48:32;;;;;;;0.10;0.10;;;;;;;11.89;81.72;98220.72;7360303;19;20029;-60
2023/10/21 08:50:59;;;;;;;0.10;0.10;;;;;;;12.04;81.42;98219.69;7369621;19;20018;-59
2023/10/21 08:53:26;;;;;;;0.10;0.10;;;;;;;12.16;81.15;98221.44;7356519;19;20918;-60
2023/10/21 08:55:51;;;;;;;0.10;0.10;;;;;;;12.33;80.52;98229.94;7358396;19;20018;-60
2023/10/21 08:58:17;;;;;;;0.10;0.10;;;;;;;12.35;80.25;98214.94;7347818;19;20014;-59
2023/10/21 09:00:42;;;;;;;0.00;0.00;;;;;;;12.53;80.15;98236.41;7351221;19;20754;-60
2023/10/21 09:03:09;;;;;;;0.10;0.10;;;;;;;12.61;79.95;98237.50;7357716;19;20022;-60
2023/10/21 09:05:36;;;;;;;0.10;0.10;;;;;;;12.71;80.21;98241.16;7359910;19;20035;-60
2023/10/21 09:08:02;;;;;;;0.10;0.10;;;;;;;12.82;79.86;98239.56;7358552;19;20006;-60
2023/10/21 09:10:30;;;;;;;0.10;0.10;;;;;;;12.90;79.27;98245.94;7361381;19;20049;-60
2023/10/21 09:12:55;;;;;;;0.10;0.10;;;;;;;12.96;79.09;98248.09;7321021;19;20377;-60
2023/10/21 09:15:34;;;;;;;0.10;0.10;;;;;;;13.00;78.88;98246.13;7357911;19;20014;-60
2023/10/21 09:18:08;;;;;;;0.10;0.10;;;;;;;13.05;79.32;98249.25;7354944;19;20493;-60
2023/10/21 09:20:37;;;;;;;0.10;0.10;;;;;;;13.02;79.17;98248.63;7354675;19;20013;-60
2023/10/21 09:23:05;;;;;;;0.10;0.10;;;;;;;13.06;79.19;98258.78;7361072;19;20021;-60
2023/10/21 09:25:30;;;;;;;0.13;0.13;;;;;;;13.15;78.69;98260.72;7355049;19;20412;-60
2023/10/21 09:27:56;;;;;;;0.10;0.10;;;;;;;13.28;78.94;98265.09;7358203;19;20071;-60
2023/10/21 09:30:24;;;;;;;0.20;0.20;;;;;;;13.41;78.42;98260.66;7352929;19;20965;-60
2023/10/21 09:32:50;;;;;;;0.10;0.10;;;;;;;13.52;78.02;98268.56;7360232;19;20067;-60
2023/10/21 09:35:25;;;;;;;0.10;0.10;;;;;;;13.66;78.50;98259.69;7358066;19;20909;-60
2023/10/21 09:37:50;;;;;;;0.10;0.10;;;;;;;13.68;77.75;98265.63;7358657;19;20029;-60
2023/10/21 09:40:17;;;;;;;0.10;0.10;;;;;;;13.71;77.22;98274.13;7357034;19;20937;-60
2023/10/21 09:42:42;;;;;;;0.10;0.10;;;;;;;13.73;77.53;98272.22;7345563;19;20037;-60
2023/10/21 09:45:12;;;;;;;0.10;0.10;;;;;;;13.85;77.93;98275.72;7340101;19;20724;-59
2023/10/21 09:47:40;;;;;;;0.10;0.10;;;;;;;13.96;77.91;98277.53;7356569;19;20014;-60
2023/10/21 09:50:11;;;;;;;0.10;0.10;;;;;;;14.05;77.44;98279.47;7349103;19;20006;-60
2023/10/21 09:52:39;;;;;;;0.10;0.10;;;;;;;14.19;77.21;98281.91;7360318;19;20030;-60
2023/10/21 09:55:10;;;;;;;0.10;0.10;;;;;;;14.24;76.94;98284.16;7351344;19;20035;-60
2023/10/21 09:57:37;;;;;;;0.10;0.10;;;;;;;14.32;76.51;98294.91;7361602;19;20658;-60
2023/10/21 10:00:07;;;;;;;0.10;0.10;;;;;;;14.42;76.66;98295.03;7363910;19;20371;-60
2023/10/21 10:02:36;;;;;;;0.10;0.10;;;;;;;14.49;76.18;98291.00;7357534;19;20025;-60
2023/10/21 10:05:06;;;;;;;0.10;0.10;;;;;;;14.60;76.66;98288.41;7360423;19;20026;-61
2023/10/21 10:07:34;;;;;;;0.10;0.10;;;;;;;14.68;76.11;98296.50;7363426;19;20420;-60
2023/10/21 10:10:02;;;;;;;0.10;0.10;;;;;;;14.88;76.44;98291.50;7363048;19;20425;-60
2023/10/21 10:12:41;;;;;;;0.10;0.10;;;;;;;15.18;76.83;98294.31;7361638;19;20686;-59
2023/10/21 10:15:27;;;;;;;0.10;0.10;;;;;;;15.47;77.46;98299.03;7359714;19;20021;-60
2023/10/21 10:17:53;;;;;;;0.10;0.10;;;;;;;15.54;75.31;98294.94;7355176;19;20115;-60
2023/10/21 10:20:22;;;;;;;0.10;0.10;;;;;;;15.63;74.48;98298.63;7362129;19;21085;-60
2023/10/21 10:22:54;;;;;;;0.00;0.00;;;;;;;15.66;74.06;98299.25;7362510;19;20435;-59
2023/10/21 10:25:25;;;;;;;0.10;0.10;;;;;;;15.68;74.31;98297.31;7365286;19;20010;-60
2023/10/21 10:27:56;;;;;;;0.10;0.10;;;;;;;15.67;74.94;98287.75;7363362;19;20401;-60
2023/10/21 10:30:22;;;;;;;0.10;0.10;;;;;;;15.71;74.54;98304.97;7358857;19;20010;-60
2023/10/21 10:32:51;;;;;;;0.10;0.10;;;;;;;15.82;75.01;98304.91;7363626;19;20033;-60
2023/10/21 10:35:30;;;;;;;0.10;0.10;;;;;;;16.06;75.81;98303.81;7366588;19;20567;-60
2023/10/21 10:37:55;;;;;;;0.10;0.10;;;;;;;16.22;74.07;98316.53;7368101;19;20787;-60
2023/10/21 10:40:38;;;;;;;0.10;0.10;;;;;;;16.53;75.15;98312.16;7354945;19;20006;-60
2023/10/21 10:43:10;;;;;;;0.10;0.10;;;;;;;16.66;73.40;98310.13;7361653;19;20486;-60
2023/10/21 10:45:36;;;;;;;0.00;0.00;;;;;;;16.67;72.12;98309.16;7359592;19;20010;-60
2023/10/21 10:48:03;;;;;;;0.10;0.10;;;;;;;16.74;72.33;98320.06;7364280;19;20034;-59
2023/10/21 10:50:36;;;;;;;0.10;0.10;;;;;;;16.75;72.43;98325.19;7360812;19;20011;-60
2023/10/21 10:53:12;;;;;;;0.10;0.10;;;;;;;16.71;74.13;98329.06;7361812;19;20018;-60
2023/10/21 10:55:40;;;;;;;0.10;0.10;;;;;;;16.60;73.46;98326.47;7363055;19;20584;-60
2023/10/21 10:58:05;;;;;;;0.10;0.10;;;;;;;16.55;73.89;98328.66;7369122;19;20017;-59
2023/10/21 11:00:31;;;;;;;0.10;0.10;;;;;;;16.65;73.87;98320.81;7359732;19;20015;-60
2023/10/21 11:02:57;;;;;;;0.10;0.10;;;;;;;16.87;74.08;98333.84;7363683;19;20011;-60
2023/10/21 11:05:22;;;;;;;0.05;0.05;;;;;;;17.14;72.92;98325.34;7362453;19;20030;-60
2023/10/21 11:07:52;;;;;;;0.10;0.10;;;;;;;17.42;72.51;98315.00;7365002;19;20105;-60
2023/10/21 11:10:21;;;;;;;0.10;0.10;;;;;;;17.85;70.99;98328.69;7365528;19;20015;-59
2023/10/21 11:12:51;;;;;;;0.10;0.10;;;;;;;18.32;71.46;98336.72;7355871;19;20090;-60
2023/10/21 11:15:17;;;;;;;0.20;0.20;;;;;;;18.66;69.74;98337.06;7359223;19;20635;-60
2023/10/21 11:17:51;;;;;;;0.10;0.10;;;;;;;19.07;69.83;98326.22;7359742;19;20010;-60
2023/10/21 11:20:19;;;;;;;0.10;0.10;;;;;;;19.25;67.68;98336.84;7357772;19;20046;-60
2023/10/21 11:22:44;;;;;;;0.17;0.17;;;;;;;19.38;68.15;98332.88;7362354;19;20018;-60
2023/10/21 11:25:10;;;;;;;0.10;0.10;;;;;;;19.42;68.05;98328.13;7361677;19;19998;-60
2023/10/21 11:27:38;;;;;;;0.10;0.10;;;;;;;19.49;67.98;98333.63;7365931;19;20022;-60
2023/10/21 11:30:07;;;;;;;0.10;0.10;;;;;;;19.45;67.94;98336.56;7362443;19;20039;-60